Terminal Aerodrome Forecast
Issued by NWS

Home | Current Version | Previous Version | Text Only | Print | Product List | Glossary On
Versions: 1 2 3 4 5 6 7 8 9 10 11 12 13 14 15 16 17 18 19 20 21 22 23 24 25 26 27 28 29 30 31 32 33 34 35
313
FTUS42 KGSP 052321
TAFHKY
TAF
KHKY 052321Z 0600/0624 35009KT P6SM -SHRA OVC040
     FM060300 32007KT P6SM -SHRA OVC030
     FM060700 31007KT P6SM VCSH OVC045
     FM061500 34014G22KT P6SM BKN050 PROB30 0616/0621 -SHRA OVC045=

USA.gov is the U.S. government's official web portal to all federal, state and local government web resources and services.